BAW9040 KMSP-KDTW
Flight info
| Callsign | BAW9040 |
|---|---|
| Flight time | 1h 18m |
| Altitude | 39000 |
| Route | COULT7 DLL PORZL RKCTY2 |
| Aircraft | A20N/M-SDE2E3FGHIRWXY/LB1 |
Departure
| Time | 2026-05-04 00:14 |
|---|---|
| Airport | Minneapolis–Saint Paul International Airport / Wold–Chamberlain Field (KMSP) |
Arrival
| Time | 2026-05-04 01:33 |
|---|---|
| Airport | Detroit Metropolitan Wayne County Airport (KDTW) |
| Time | Latitude | Longitude | Altitude | Speed | Heading |
|---|---|---|---|---|---|
| 2026-05-03 23:52 | 44.88546 | -93.21460 | 827 ft | 0 kts | 96° |
| 2026-05-04 00:04 | 44.88547 | -93.21461 | 827 ft | 1 kts | 97° |
| 2026-05-04 00:05 | 44.88546 | -93.21482 | 827 ft | 2 kts | 96° |
| 2026-05-04 00:05 | 44.88548 | -93.21503 | 827 ft | 2 kts | 95° |
| 2026-05-04 00:05 | 44.88549 | -93.21524 | 828 ft | 2 kts | 107° |
| 2026-05-04 00:05 | 44.88557 | -93.21542 | 828 ft | 2 kts | 141° |
| 2026-05-04 00:06 | 44.88570 | -93.21551 | 828 ft | 2 kts | 172° |
| 2026-05-04 00:06 | 44.88585 | -93.21551 | 828 ft | 2 kts | 202° |
| 2026-05-04 00:06 | 44.88594 | -93.21544 | 828 ft | 0 kts | 223° |
| 2026-05-04 00:06 | 44.88599 | -93.21536 | 828 ft | 0 kts | 226° |
| 2026-05-04 00:09 | 44.88593 | -93.21545 | 828 ft | 3 kts | 226° |
| 2026-05-04 00:09 | 44.88563 | -93.21589 | 828 ft | 9 kts | 226° |
| 2026-05-04 00:10 | 44.88502 | -93.21679 | 827 ft | 15 kts | 226° |
| 2026-05-04 00:10 | 44.88414 | -93.21801 | 830 ft | 19 kts | 224° |
| 2026-05-04 00:10 | 44.88323 | -93.21925 | 830 ft | 16 kts | 220° |
| 2026-05-04 00:10 | 44.88241 | -93.21874 | 829 ft | 16 kts | 122° |
| 2026-05-04 00:11 | 44.88173 | -93.21719 | 827 ft | 20 kts | 120° |
| 2026-05-04 00:11 | 44.88099 | -93.21544 | 827 ft | 20 kts | 121° |
| 2026-05-04 00:11 | 44.88022 | -93.21368 | 825 ft | 22 kts | 122° |
| 2026-05-04 00:11 | 44.87936 | -93.21172 | 824 ft | 25 kts | 122° |
| 2026-05-04 00:12 | 44.87843 | -93.20956 | 820 ft | 25 kts | 122° |
| 2026-05-04 00:12 | 44.87752 | -93.20744 | 816 ft | 25 kts | 122° |
| 2026-05-04 00:12 | 44.87664 | -93.20539 | 814 ft | 23 kts | 121° |
| 2026-05-04 00:12 | 44.87578 | -93.20348 | 812 ft | 22 kts | 122° |
| 2026-05-04 00:13 | 44.87511 | -93.20187 | 811 ft | 16 kts | 122° |
| 2026-05-04 00:13 | 44.87445 | -93.20080 | 810 ft | 13 kts | 173° |
| 2026-05-04 00:13 | 44.87389 | -93.20184 | 809 ft | 19 kts | 287° |
| 2026-05-04 00:13 | 44.87521 | -93.20514 | 812 ft | 69 kts | 301° |
| 2026-05-04 00:14 | 44.87885 | -93.21358 | 825 ft | 127 kts | 301° |
| 2026-05-04 00:14 | 44.88421 | -93.22576 | 858 ft | 160 kts | 300° |
| 2026-05-04 00:14 | 44.89035 | -93.23986 | 1055 ft | 182 kts | 301° |
| 2026-05-04 00:14 | 44.89731 | -93.25517 | 1714 ft | 190 kts | 302° |
| 2026-05-04 00:15 | 44.90524 | -93.27071 | 2430 ft | 202 kts | 307° |
| 2026-05-04 00:15 | 44.91486 | -93.28561 | 3254 ft | 210 kts | 323° |
| 2026-05-04 00:15 | 44.92820 | -93.29301 | 4115 ft | 217 kts | 353° |
| 2026-05-04 00:15 | 44.94286 | -93.28835 | 5012 ft | 225 kts | 30° |
| 2026-05-04 00:16 | 44.95257 | -93.27166 | 5899 ft | 229 kts | 71° |
| 2026-05-04 00:16 | 44.95270 | -93.24990 | 6770 ft | 226 kts | 113° |
| 2026-05-04 00:16 | 44.94308 | -93.23347 | 7598 ft | 215 kts | 159° |
| 2026-05-04 00:16 | 44.92876 | -93.22723 | 8004 ft | 230 kts | 163° |
| 2026-05-04 00:17 | 44.91502 | -93.21368 | 8279 ft | 258 kts | 124° |
| 2026-05-04 00:17 | 44.90643 | -93.19048 | 8696 ft | 276 kts | 105° |
| 2026-05-04 00:17 | 44.90354 | -93.16293 | 9072 ft | 294 kts | 100° |
| 2026-05-04 00:17 | 44.89585 | -93.13628 | 9533 ft | 291 kts | 115° |
| 2026-05-04 00:18 | 44.88738 | -93.10913 | 9819 ft | 309 kts | 112° |
| 2026-05-04 00:18 | 44.87897 | -93.08115 | 10429 ft | 317 kts | 112° |
| 2026-05-04 00:18 | 44.87027 | -93.05189 | 10985 ft | 328 kts | 111° |
| 2026-05-04 00:18 | 44.86120 | -93.02135 | 11212 ft | 350 kts | 112° |
| 2026-05-04 00:19 | 44.85161 | -92.98907 | 11738 ft | 359 kts | 111° |
| 2026-05-04 00:19 | 44.84199 | -92.95675 | 12558 ft | 359 kts | 111° |
| 2026-05-04 00:19 | 44.83231 | -92.92428 | 13257 ft | 363 kts | 111° |
| 2026-05-04 00:19 | 44.82232 | -92.89073 | 13771 ft | 372 kts | 111° |
| 2026-05-04 00:20 | 44.81226 | -92.85707 | 14409 ft | 376 kts | 111° |
| 2026-05-04 00:20 | 44.80212 | -92.82319 | 15103 ft | 377 kts | 111° |
| 2026-05-04 00:20 | 44.79192 | -92.78914 | 15754 ft | 380 kts | 111° |
| 2026-05-04 00:20 | 44.78169 | -92.75500 | 16310 ft | 384 kts | 111° |
| 2026-05-04 00:21 | 44.77110 | -92.71970 | 16881 ft | 389 kts | 111° |
| 2026-05-04 00:21 | 44.76042 | -92.68420 | 17448 ft | 393 kts | 111° |
| 2026-05-04 00:21 | 44.74983 | -92.64905 | 18004 ft | 396 kts | 110° |
| 2026-05-04 00:21 | 44.73902 | -92.61320 | 18544 ft | 399 kts | 111° |
| 2026-05-04 00:22 | 44.72814 | -92.57719 | 19064 ft | 402 kts | 110° |
| 2026-05-04 00:22 | 44.71706 | -92.54059 | 19558 ft | 405 kts | 110° |
| 2026-05-04 00:22 | 44.70598 | -92.50410 | 20044 ft | 409 kts | 111° |
| 2026-05-04 00:22 | 44.69101 | -92.46981 | 20488 ft | 414 kts | 125° |
| 2026-05-04 00:23 | 44.67413 | -92.43694 | 20915 ft | 418 kts | 124° |
| 2026-05-04 00:23 | 44.65713 | -92.40391 | 21399 ft | 420 kts | 124° |
| 2026-05-04 00:23 | 44.63993 | -92.37045 | 21882 ft | 422 kts | 124° |
| 2026-05-04 00:23 | 44.62269 | -92.33688 | 22290 ft | 426 kts | 124° |
| 2026-05-04 00:24 | 44.60511 | -92.30270 | 22673 ft | 430 kts | 124° |
| 2026-05-04 00:24 | 44.58779 | -92.26904 | 23090 ft | 432 kts | 124° |
| 2026-05-04 00:24 | 44.57002 | -92.23457 | 23524 ft | 434 kts | 124° |
| 2026-05-04 00:24 | 44.55227 | -92.20016 | 23901 ft | 438 kts | 124° |
| 2026-05-04 00:25 | 44.53451 | -92.16576 | 24329 ft | 440 kts | 124° |
| 2026-05-04 00:25 | 44.51640 | -92.13074 | 24797 ft | 441 kts | 124° |
| 2026-05-04 00:25 | 44.49852 | -92.09623 | 25212 ft | 442 kts | 124° |
| 2026-05-04 00:25 | 44.48043 | -92.06132 | 25584 ft | 445 kts | 124° |
| 2026-05-04 00:26 | 44.46220 | -92.02619 | 25963 ft | 446 kts | 124° |
| 2026-05-04 00:26 | 44.44382 | -91.99083 | 26303 ft | 449 kts | 124° |
| 2026-05-04 00:26 | 44.42543 | -91.95549 | 26649 ft | 452 kts | 124° |
| 2026-05-04 00:26 | 44.40678 | -91.91969 | 27048 ft | 453 kts | 124° |
| 2026-05-04 00:27 | 44.38836 | -91.88438 | 27431 ft | 454 kts | 124° |
| 2026-05-04 00:27 | 44.36987 | -91.84825 | 27768 ft | 454 kts | 120° |
| 2026-05-04 00:27 | 44.35513 | -91.80970 | 27994 ft | 457 kts | 115° |
| 2026-05-04 00:27 | 44.34026 | -91.77033 | 28330 ft | 458 kts | 114° |
| 2026-05-04 00:28 | 44.32539 | -91.73109 | 28732 ft | 458 kts | 115° |
| 2026-05-04 00:28 | 44.31041 | -91.69171 | 29214 ft | 456 kts | 115° |
| 2026-05-04 00:28 | 44.29561 | -91.65284 | 29686 ft | 455 kts | 115° |
| 2026-05-04 00:28 | 44.28076 | -91.61395 | 30120 ft | 454 kts | 115° |
| 2026-05-04 00:29 | 44.26578 | -91.57471 | 30554 ft | 453 kts | 114° |
| 2026-05-04 00:29 | 44.25117 | -91.53651 | 30955 ft | 452 kts | 114° |
| 2026-05-04 00:29 | 44.23621 | -91.49746 | 31304 ft | 452 kts | 114° |
| 2026-05-04 00:29 | 44.22156 | -91.45925 | 31615 ft | 452 kts | 115° |
| 2026-05-04 00:30 | 44.20656 | -91.42018 | 31958 ft | 452 kts | 115° |
| 2026-05-04 00:30 | 44.19178 | -91.38175 | 32273 ft | 452 kts | 115° |
| 2026-05-04 00:30 | 44.17688 | -91.34302 | 32592 ft | 452 kts | 116° |
| 2026-05-04 00:30 | 44.16210 | -91.30475 | 32847 ft | 453 kts | 116° |
| 2026-05-04 00:31 | 44.14709 | -91.26588 | 33140 ft | 453 kts | 116° |
| 2026-05-04 00:31 | 44.13207 | -91.22701 | 33416 ft | 454 kts | 116° |
| 2026-05-04 00:31 | 44.11713 | -91.18848 | 33662 ft | 455 kts | 116° |
| 2026-05-04 00:31 | 44.10206 | -91.14961 | 33908 ft | 456 kts | 116° |
| 2026-05-04 00:32 | 44.08701 | -91.11085 | 34159 ft | 456 kts | 116° |
| 2026-05-04 00:32 | 44.07179 | -91.07171 | 34458 ft | 456 kts | 116° |
| 2026-05-04 00:32 | 44.05683 | -91.03329 | 34687 ft | 456 kts | 116° |
| 2026-05-04 00:32 | 44.04167 | -90.99441 | 34920 ft | 455 kts | 116° |
| 2026-05-04 00:33 | 44.02671 | -90.95612 | 35121 ft | 456 kts | 116° |
| 2026-05-04 00:33 | 43.99634 | -90.87850 | 35573 ft | 454 kts | 116° |
| 2026-05-04 00:33 | 43.98122 | -90.83995 | 35788 ft | 453 kts | 116° |
| 2026-05-04 00:34 | 43.96614 | -90.80153 | 35985 ft | 453 kts | 116° |
| 2026-05-04 00:34 | 43.95105 | -90.76317 | 36175 ft | 452 kts | 116° |
| 2026-05-04 00:34 | 43.93612 | -90.72524 | 36336 ft | 453 kts | 116° |
| 2026-05-04 00:34 | 43.92099 | -90.68684 | 36508 ft | 453 kts | 117° |
| 2026-05-04 00:35 | 43.90599 | -90.64887 | 36665 ft | 453 kts | 116° |
| 2026-05-04 00:35 | 43.89085 | -90.61053 | 36836 ft | 452 kts | 116° |
| 2026-05-04 00:35 | 43.87576 | -90.57244 | 36959 ft | 453 kts | 116° |
| 2026-05-04 00:35 | 43.86050 | -90.53393 | 37097 ft | 453 kts | 117° |
| 2026-05-04 00:36 | 43.84526 | -90.49553 | 37219 ft | 453 kts | 116° |
| 2026-05-04 00:36 | 43.83004 | -90.45725 | 37341 ft | 453 kts | 116° |
| 2026-05-04 00:36 | 43.81487 | -90.41913 | 37457 ft | 453 kts | 117° |
| 2026-05-04 00:36 | 43.79979 | -90.38129 | 37561 ft | 454 kts | 117° |
| 2026-05-04 00:37 | 43.78447 | -90.34290 | 37667 ft | 453 kts | 118° |
| 2026-05-04 00:37 | 43.76936 | -90.30510 | 37775 ft | 453 kts | 118° |
| 2026-05-04 00:37 | 43.75390 | -90.26644 | 37885 ft | 453 kts | 118° |
| 2026-05-04 00:38 | 43.72356 | -90.19078 | 37909 ft | 452 kts | 117° |
| 2026-05-04 00:38 | 43.70835 | -90.15294 | 38165 ft | 452 kts | 117° |
| 2026-05-04 00:38 | 43.69306 | -90.11491 | 38121 ft | 452 kts | 117° |
| 2026-05-04 00:38 | 43.67779 | -90.07701 | 38243 ft | 451 kts | 118° |
| 2026-05-04 00:39 | 43.66261 | -90.03936 | 38350 ft | 450 kts | 118° |
| 2026-05-04 00:39 | 43.64735 | -90.00157 | 38464 ft | 449 kts | 118° |
| 2026-05-04 00:39 | 43.63203 | -89.96371 | 38583 ft | 448 kts | 118° |
| 2026-05-04 00:39 | 43.61700 | -89.92657 | 38701 ft | 447 kts | 118° |
| 2026-05-04 00:40 | 43.60188 | -89.88931 | 38811 ft | 445 kts | 117° |
| 2026-05-04 00:40 | 43.57153 | -89.81457 | 38781 ft | 451 kts | 118° |
| 2026-05-04 00:41 | 43.54615 | -89.73625 | 38845 ft | 445 kts | 95° |
| 2026-05-04 00:41 | 43.53942 | -89.65156 | 38860 ft | 447 kts | 94° |
| 2026-05-04 00:42 | 43.53117 | -89.56574 | 38801 ft | 453 kts | 94° |
| 2026-05-04 00:42 | 43.52258 | -89.47997 | 38850 ft | 456 kts | 94° |
| 2026-05-04 00:43 | 43.51380 | -89.39307 | 38795 ft | 461 kts | 94° |
| 2026-05-04 00:43 | 43.50485 | -89.30525 | 38826 ft | 464 kts | 95° |
| 2026-05-04 00:44 | 43.49574 | -89.21667 | 38793 ft | 467 kts | 95° |
| 2026-05-04 00:44 | 43.48657 | -89.12814 | 38814 ft | 469 kts | 95° |
| 2026-05-04 00:45 | 43.47725 | -89.03893 | 38806 ft | 472 kts | 95° |
| 2026-05-04 00:45 | 43.46790 | -88.94998 | 38807 ft | 474 kts | 95° |
| 2026-05-04 00:46 | 43.45837 | -88.86007 | 38790 ft | 475 kts | 95° |
| 2026-05-04 00:46 | 43.44872 | -88.76975 | 38813 ft | 476 kts | 95° |
| 2026-05-04 00:47 | 43.43904 | -88.67974 | 38803 ft | 477 kts | 95° |
| 2026-05-04 00:47 | 43.42927 | -88.58974 | 38837 ft | 477 kts | 95° |
| 2026-05-04 00:48 | 43.41943 | -88.49971 | 38785 ft | 480 kts | 95° |
| 2026-05-04 00:48 | 43.40946 | -88.40915 | 38824 ft | 479 kts | 95° |
| 2026-05-04 00:49 | 43.39941 | -88.31851 | 38796 ft | 481 kts | 96° |
| 2026-05-04 00:49 | 43.38924 | -88.22759 | 38820 ft | 480 kts | 96° |
| 2026-05-04 00:50 | 43.37911 | -88.13763 | 38833 ft | 480 kts | 96° |
| 2026-05-04 00:50 | 43.36885 | -88.04705 | 38812 ft | 481 kts | 96° |
| 2026-05-04 00:51 | 43.35849 | -87.95643 | 38824 ft | 480 kts | 96° |
| 2026-05-04 00:51 | 43.34813 | -87.86634 | 38783 ft | 481 kts | 96° |
| 2026-05-04 00:52 | 43.33763 | -87.77576 | 38814 ft | 480 kts | 96° |
| 2026-05-04 00:52 | 43.32705 | -87.68512 | 38782 ft | 482 kts | 96° |
| 2026-05-04 00:53 | 43.31646 | -87.59505 | 38824 ft | 481 kts | 96° |
| 2026-05-04 00:53 | 43.30575 | -87.50455 | 38799 ft | 482 kts | 96° |
| 2026-05-04 00:54 | 43.29491 | -87.41358 | 38799 ft | 482 kts | 96° |
| 2026-05-04 00:54 | 43.28410 | -87.32349 | 38827 ft | 482 kts | 97° |
| 2026-05-04 00:55 | 43.27313 | -87.23283 | 38785 ft | 482 kts | 97° |
| 2026-05-04 00:55 | 43.26215 | -87.14256 | 38840 ft | 481 kts | 97° |
| 2026-05-04 00:55 | 43.25944 | -87.09734 | 38813 ft | 475 kts | 83° |
| 2026-05-04 00:56 | 43.26223 | -87.05237 | 38813 ft | 474 kts | 83° |
| 2026-05-04 00:56 | 43.26621 | -86.96237 | 38836 ft | 474 kts | 83° |
| 2026-05-04 00:57 | 43.26974 | -86.87259 | 38818 ft | 475 kts | 83° |
| 2026-05-04 00:57 | 43.27316 | -86.78200 | 38845 ft | 475 kts | 84° |
| 2026-05-04 00:58 | 43.27649 | -86.69205 | 38568 ft | 482 kts | 84° |
| 2026-05-04 00:58 | 43.27816 | -86.64569 | 37934 ft | 495 kts | 83° |
| 2026-05-04 00:58 | 43.27985 | -86.59891 | 37268 ft | 488 kts | 83° |
| 2026-05-04 00:58 | 43.28147 | -86.55262 | 36723 ft | 474 kts | 83° |
| 2026-05-04 00:59 | 43.28303 | -86.50810 | 36241 ft | 465 kts | 83° |
| 2026-05-04 00:59 | 43.28459 | -86.46381 | 35777 ft | 470 kts | 83° |
| 2026-05-04 00:59 | 43.28616 | -86.41888 | 35300 ft | 479 kts | 83° |
| 2026-05-04 00:59 | 43.28772 | -86.37285 | 34819 ft | 483 kts | 83° |
| 2026-05-04 01:00 | 43.28920 | -86.32781 | 34337 ft | 468 kts | 83° |
| 2026-05-04 01:00 | 43.29066 | -86.28390 | 33826 ft | 453 kts | 83° |
| 2026-05-04 01:00 | 43.29205 | -86.24165 | 33238 ft | 441 kts | 83° |
| 2026-05-04 01:00 | 43.29340 | -86.19997 | 32591 ft | 431 kts | 83° |
| 2026-05-04 01:01 | 43.29470 | -86.15939 | 31956 ft | 420 kts | 83° |
| 2026-05-04 01:01 | 43.29595 | -86.12014 | 31334 ft | 411 kts | 83° |
| 2026-05-04 01:01 | 43.29719 | -86.08093 | 30675 ft | 402 kts | 83° |
| 2026-05-04 01:01 | 43.29829 | -86.04385 | 30007 ft | 396 kts | 84° |
| 2026-05-04 01:02 | 43.29853 | -86.00609 | 29334 ft | 399 kts | 85° |
| 2026-05-04 01:02 | 43.29880 | -85.96766 | 28692 ft | 403 kts | 85° |
| 2026-05-04 01:02 | 43.29907 | -85.92918 | 28066 ft | 406 kts | 85° |
| 2026-05-04 01:02 | 43.29932 | -85.89024 | 27701 ft | 400 kts | 85° |
| 2026-05-04 01:03 | 43.29955 | -85.85281 | 27711 ft | 386 kts | 85° |
| 2026-05-04 01:03 | 43.29975 | -85.81678 | 27844 ft | 370 kts | 85° |
| 2026-05-04 01:03 | 43.29995 | -85.78235 | 27849 ft | 358 kts | 85° |
| 2026-05-04 01:03 | 43.30016 | -85.74844 | 27778 ft | 347 kts | 85° |
| 2026-05-04 01:04 | 43.30032 | -85.71574 | 27714 ft | 337 kts | 84° |
| 2026-05-04 01:04 | 43.30048 | -85.68404 | 27643 ft | 330 kts | 84° |
| 2026-05-04 01:04 | 43.30065 | -85.65202 | 27625 ft | 335 kts | 85° |
| 2026-05-04 01:04 | 43.30081 | -85.62008 | 27636 ft | 341 kts | 85° |
| 2026-05-04 01:05 | 43.30095 | -85.58690 | 27667 ft | 346 kts | 85° |
| 2026-05-04 01:05 | 43.30109 | -85.55369 | 27687 ft | 351 kts | 85° |
| 2026-05-04 01:05 | 43.30120 | -85.51994 | 27699 ft | 357 kts | 85° |
| 2026-05-04 01:05 | 43.30131 | -85.48600 | 27700 ft | 363 kts | 85° |
| 2026-05-04 01:06 | 43.30142 | -85.45056 | 27700 ft | 369 kts | 85° |
| 2026-05-04 01:06 | 43.30152 | -85.41535 | 27705 ft | 374 kts | 85° |
| 2026-05-04 01:06 | 43.30161 | -85.37934 | 27709 ft | 380 kts | 85° |
| 2026-05-04 01:06 | 43.30167 | -85.34244 | 27706 ft | 386 kts | 86° |
| 2026-05-04 01:07 | 43.30174 | -85.30568 | 27702 ft | 394 kts | 86° |
| 2026-05-04 01:07 | 43.30180 | -85.26722 | 27712 ft | 407 kts | 86° |
| 2026-05-04 01:07 | 43.30115 | -85.22797 | 27733 ft | 422 kts | 94° |
| 2026-05-04 01:07 | 43.29297 | -85.18819 | 27737 ft | 439 kts | 114° |
| 2026-05-04 01:08 | 43.27655 | -85.15282 | 27737 ft | 451 kts | 128° |
| 2026-05-04 01:08 | 43.25806 | -85.11687 | 27412 ft | 465 kts | 124° |
| 2026-05-04 01:08 | 43.24032 | -85.08005 | 26668 ft | 473 kts | 123° |
| 2026-05-04 01:08 | 43.22227 | -85.04182 | 25768 ft | 478 kts | 123° |
| 2026-05-04 01:09 | 43.20445 | -85.00386 | 25086 ft | 476 kts | 123° |
| 2026-05-04 01:09 | 43.18665 | -84.96588 | 24664 ft | 469 kts | 123° |
| 2026-05-04 01:09 | 43.16909 | -84.92851 | 24493 ft | 458 kts | 123° |
| 2026-05-04 01:09 | 43.15229 | -84.89274 | 24546 ft | 443 kts | 123° |
| 2026-05-04 01:10 | 43.13559 | -84.85731 | 24263 ft | 438 kts | 124° |
| 2026-05-04 01:10 | 43.11853 | -84.82335 | 23533 ft | 439 kts | 125° |
| 2026-05-04 01:10 | 43.10148 | -84.78939 | 22638 ft | 428 kts | 125° |
| 2026-05-04 01:10 | 43.08495 | -84.75648 | 22046 ft | 418 kts | 125° |
| 2026-05-04 01:11 | 43.06825 | -84.72331 | 21847 ft | 422 kts | 125° |
| 2026-05-04 01:11 | 43.05176 | -84.69057 | 21888 ft | 420 kts | 125° |
| 2026-05-04 01:11 | 43.03518 | -84.65767 | 21900 ft | 424 kts | 125° |
| 2026-05-04 01:11 | 43.01818 | -84.62399 | 21766 ft | 432 kts | 125° |
| 2026-05-04 01:12 | 43.00118 | -84.59030 | 21384 ft | 433 kts | 125° |
| 2026-05-04 01:12 | 42.98419 | -84.55669 | 20762 ft | 428 kts | 125° |
| 2026-05-04 01:12 | 42.96738 | -84.52350 | 20096 ft | 425 kts | 125° |
| 2026-05-04 01:12 | 42.95067 | -84.49051 | 19546 ft | 421 kts | 125° |
| 2026-05-04 01:13 | 42.93430 | -84.45761 | 19125 ft | 414 kts | 124° |
| 2026-05-04 01:13 | 42.91837 | -84.42534 | 18780 ft | 407 kts | 124° |
| 2026-05-04 01:13 | 42.90275 | -84.39374 | 18542 ft | 398 kts | 124° |
| 2026-05-04 01:13 | 42.88732 | -84.36257 | 18457 ft | 393 kts | 124° |
| 2026-05-04 01:14 | 42.87214 | -84.33189 | 18407 ft | 388 kts | 125° |
| 2026-05-04 01:14 | 42.85696 | -84.30133 | 18177 ft | 388 kts | 125° |
| 2026-05-04 01:14 | 42.84188 | -84.27096 | 17685 ft | 395 kts | 125° |
| 2026-05-04 01:14 | 42.82625 | -84.23952 | 17024 ft | 400 kts | 125° |
| 2026-05-04 01:15 | 42.81087 | -84.20859 | 16425 ft | 387 kts | 125° |
| 2026-05-04 01:15 | 42.79586 | -84.17844 | 15857 ft | 384 kts | 125° |
| 2026-05-04 01:15 | 42.78109 | -84.14881 | 15357 ft | 383 kts | 125° |
| 2026-05-04 01:15 | 42.76609 | -84.11877 | 14836 ft | 382 kts | 125° |
| 2026-05-04 01:16 | 42.75124 | -84.08900 | 14334 ft | 375 kts | 125° |
| 2026-05-04 01:16 | 42.73690 | -84.06023 | 13823 ft | 364 kts | 125° |
| 2026-05-04 01:16 | 42.72281 | -84.03198 | 13324 ft | 356 kts | 125° |
| 2026-05-04 01:16 | 42.70894 | -84.00421 | 12821 ft | 350 kts | 125° |
| 2026-05-04 01:17 | 42.69553 | -83.97736 | 12366 ft | 344 kts | 125° |
| 2026-05-04 01:17 | 42.68405 | -83.94913 | 12007 ft | 337 kts | 108° |
| 2026-05-04 01:17 | 42.67861 | -83.91858 | 11797 ft | 328 kts | 103° |
| 2026-05-04 01:17 | 42.67332 | -83.88884 | 11599 ft | 320 kts | 103° |
| 2026-05-04 01:18 | 42.66803 | -83.85992 | 11344 ft | 315 kts | 104° |
| 2026-05-04 01:18 | 42.66266 | -83.83106 | 10846 ft | 318 kts | 104° |
| 2026-05-04 01:18 | 42.65713 | -83.80160 | 10135 ft | 326 kts | 104° |
| 2026-05-04 01:18 | 42.65155 | -83.77199 | 9496 ft | 320 kts | 105° |
| 2026-05-04 01:19 | 42.64607 | -83.74304 | 9211 ft | 311 kts | 105° |
| 2026-05-04 01:19 | 42.64078 | -83.71517 | 9195 ft | 296 kts | 105° |
| 2026-05-04 01:19 | 42.63570 | -83.68844 | 9156 ft | 290 kts | 104° |
| 2026-05-04 01:19 | 42.63065 | -83.66180 | 8788 ft | 296 kts | 104° |
| 2026-05-04 01:20 | 42.62540 | -83.63434 | 8296 ft | 303 kts | 106° |
| 2026-05-04 01:20 | 42.61956 | -83.60699 | 7970 ft | 301 kts | 106° |
| 2026-05-04 01:20 | 42.61381 | -83.58001 | 7734 ft | 294 kts | 107° |
| 2026-05-04 01:20 | 42.60825 | -83.55393 | 7530 ft | 286 kts | 107° |
| 2026-05-04 01:21 | 42.60280 | -83.52834 | 7398 ft | 277 kts | 107° |
| 2026-05-04 01:21 | 42.59754 | -83.50375 | 7277 ft | 270 kts | 107° |
| 2026-05-04 01:21 | 42.59235 | -83.47949 | 7120 ft | 270 kts | 107° |
| 2026-05-04 01:21 | 42.58708 | -83.45489 | 6884 ft | 272 kts | 107° |
| 2026-05-04 01:22 | 42.58175 | -83.43008 | 6632 ft | 275 kts | 107° |
| 2026-05-04 01:22 | 42.57643 | -83.40529 | 6392 ft | 277 kts | 107° |
| 2026-05-04 01:22 | 42.57098 | -83.37991 | 6153 ft | 278 kts | 107° |
| 2026-05-04 01:22 | 42.56460 | -83.35563 | 5914 ft | 276 kts | 123° |
| 2026-05-04 01:23 | 42.55172 | -83.33716 | 5678 ft | 265 kts | 152° |
| 2026-05-04 01:23 | 42.53742 | -83.32155 | 5484 ft | 269 kts | 132° |
| 2026-05-04 01:23 | 42.52910 | -83.29886 | 5357 ft | 270 kts | 114° |
| 2026-05-04 01:23 | 42.52068 | -83.27657 | 5233 ft | 262 kts | 126° |
| 2026-05-04 01:24 | 42.51122 | -83.25561 | 5112 ft | 259 kts | 127° |
| 2026-05-04 01:24 | 42.50174 | -83.23504 | 5065 ft | 255 kts | 127° |
| 2026-05-04 01:24 | 42.49244 | -83.21503 | 5071 ft | 254 kts | 127° |
| 2026-05-04 01:24 | 42.48304 | -83.19485 | 5052 ft | 253 kts | 127° |
| 2026-05-04 01:25 | 42.47239 | -83.17617 | 5017 ft | 244 kts | 149° |
| 2026-05-04 01:25 | 42.45753 | -83.16735 | 5008 ft | 225 kts | 182° |
| 2026-05-04 01:25 | 42.44304 | -83.17027 | 5011 ft | 207 kts | 212° |
| 2026-05-04 01:25 | 42.43014 | -83.17896 | 4952 ft | 207 kts | 213° |
| 2026-05-04 01:26 | 42.41761 | -83.18826 | 4916 ft | 205 kts | 215° |
| 2026-05-04 01:26 | 42.40585 | -83.19688 | 4733 ft | 180 kts | 216° |
| 2026-05-04 01:26 | 42.39544 | -83.20455 | 4410 ft | 160 kts | 216° |
| 2026-05-04 01:26 | 42.38591 | -83.21162 | 4202 ft | 152 kts | 216° |
| 2026-05-04 01:27 | 42.37679 | -83.21838 | 4147 ft | 147 kts | 216° |
| 2026-05-04 01:27 | 42.36808 | -83.22480 | 4104 ft | 142 kts | 217° |
| 2026-05-04 01:27 | 42.35923 | -83.23142 | 3825 ft | 148 kts | 216° |
| 2026-05-04 01:27 | 42.35036 | -83.23796 | 3602 ft | 143 kts | 216° |
| 2026-05-04 01:28 | 42.34172 | -83.24433 | 3374 ft | 136 kts | 216° |
| 2026-05-04 01:28 | 42.33378 | -83.25017 | 3247 ft | 127 kts | 216° |
| 2026-05-04 01:28 | 42.32612 | -83.25583 | 3053 ft | 125 kts | 216° |
| 2026-05-04 01:28 | 42.31850 | -83.26142 | 2869 ft | 122 kts | 216° |
| 2026-05-04 01:29 | 42.31121 | -83.26681 | 2687 ft | 118 kts | 216° |
| 2026-05-04 01:29 | 42.30405 | -83.27211 | 2521 ft | 115 kts | 215° |
| 2026-05-04 01:29 | 42.29711 | -83.27720 | 2392 ft | 112 kts | 215° |
| 2026-05-04 01:29 | 42.29025 | -83.28227 | 2242 ft | 111 kts | 214° |
| 2026-05-04 01:30 | 42.28354 | -83.28721 | 2074 ft | 110 kts | 215° |
| 2026-05-04 01:30 | 42.27681 | -83.29215 | 1919 ft | 109 kts | 214° |
| 2026-05-04 01:30 | 42.27020 | -83.29703 | 1791 ft | 108 kts | 214° |
| 2026-05-04 01:30 | 42.26351 | -83.30196 | 1643 ft | 110 kts | 213° |
| 2026-05-04 01:31 | 42.25677 | -83.30687 | 1502 ft | 110 kts | 213° |
| 2026-05-04 01:31 | 42.24996 | -83.31188 | 1345 ft | 112 kts | 212° |
| 2026-05-04 01:31 | 42.24307 | -83.31695 | 1202 ft | 113 kts | 213° |
| 2026-05-04 01:31 | 42.23625 | -83.32199 | 1037 ft | 115 kts | 211° |
| 2026-05-04 01:32 | 42.22912 | -83.32719 | 903 ft | 114 kts | 213° |
| 2026-05-04 01:32 | 42.22208 | -83.33240 | 761 ft | 114 kts | 211° |
| 2026-05-04 01:32 | 42.21502 | -83.33751 | 647 ft | 113 kts | 213° |
| 2026-05-04 01:32 | 42.20900 | -83.34206 | 636 ft | 83 kts | 202° |
| 2026-05-04 01:33 | 42.20660 | -83.34404 | 635 ft | 24 kts | 220° |
| 2026-05-04 01:33 | 42.20569 | -83.34560 | 635 ft | 18 kts | 236° |
| 2026-05-04 01:33 | 42.20610 | -83.34648 | 635 ft | 16 kts | 6° |
| 2026-05-04 01:33 | 42.20757 | -83.34553 | 635 ft | 26 kts | 28° |
| 2026-05-04 01:34 | 42.20907 | -83.34441 | 635 ft | 23 kts | 29° |
| 2026-05-04 01:34 | 42.21036 | -83.34426 | 635 ft | 18 kts | 303° |
| 2026-05-04 01:34 | 42.21095 | -83.34572 | 635 ft | 16 kts | 297° |
| 2026-05-04 01:34 | 42.21151 | -83.34705 | 636 ft | 15 kts | 299° |
| 2026-05-04 01:35 | 42.21201 | -83.34832 | 639 ft | 14 kts | 299° |
| 2026-05-04 01:35 | 42.21276 | -83.34926 | 639 ft | 16 kts | 347° |
| 2026-05-04 01:35 | 42.21387 | -83.34997 | 639 ft | 19 kts | 328° |
| 2026-05-04 01:35 | 42.21513 | -83.35104 | 639 ft | 22 kts | 325° |
| 2026-05-04 01:36 | 42.21645 | -83.35246 | 639 ft | 26 kts | 317° |
| 2026-05-04 01:36 | 42.21811 | -83.35332 | 641 ft | 25 kts | 360° |
| 2026-05-04 01:36 | 42.21969 | -83.35293 | 641 ft | 21 kts | 26° |
| 2026-05-04 01:36 | 42.22095 | -83.35247 | 642 ft | 18 kts | 339° |
| 2026-05-04 01:37 | 42.22214 | -83.35320 | 642 ft | 18 kts | 330° |
| 2026-05-04 01:37 | 42.22326 | -83.35308 | 642 ft | 18 kts | 30° |
| 2026-05-04 01:37 | 42.22409 | -83.35184 | 642 ft | 17 kts | 52° |
| 2026-05-04 01:37 | 42.22492 | -83.35081 | 640 ft | 16 kts | 30° |
| 2026-05-04 01:38 | 42.22614 | -83.34991 | 639 ft | 22 kts | 28° |
| 2026-05-04 01:38 | 42.22746 | -83.34895 | 639 ft | 20 kts | 28° |
| 2026-05-04 01:38 | 42.22840 | -83.34828 | 639 ft | 7 kts | 28° |
| 2026-05-04 01:38 | 42.22871 | -83.34797 | 639 ft | 3 kts | 64° |
| 2026-05-04 01:39 | 42.22876 | -83.34772 | 639 ft | 3 kts | 78° |
| 2026-05-04 01:39 | 42.22864 | -83.34725 | 639 ft | 5 kts | 117° |
| 2026-05-04 01:39 | 42.22855 | -83.34701 | 639 ft | 0 kts | 118° |